createdAt,value
2019-05-03T00:01:21.799Z,9.10
2019-05-03T00:02:38.269Z,9.10
2019-05-03T00:03:43.592Z,9.10
2019-05-03T00:04:51.636Z,9.10
2019-05-03T00:06:01.752Z,9.10
2019-05-03T00:07:08.169Z,9.10
2019-05-03T00:08:13.511Z,9.10
2019-05-03T00:09:22.425Z,9.10
2019-05-03T00:10:27.192Z,9.00
2019-05-03T00:11:32.724Z,9.00
2019-05-03T00:12:38.158Z,9.00
2019-05-03T00:13:43.370Z,9.00
2019-05-03T00:14:52.001Z,9.00
2019-05-03T00:16:21.903Z,9.00
2019-05-03T00:17:27.322Z,9.00
2019-05-03T00:18:32.897Z,9.00
2019-05-03T00:19:38.136Z,9.00
2019-05-03T00:20:43.417Z,9.00
2019-05-03T00:21:48.631Z,9.00
2019-05-03T00:22:54.002Z,9.10
2019-05-03T00:23:59.302Z,9.10
2019-05-03T00:25:08.155Z,9.10
2019-05-03T00:26:12.082Z,9.10
2019-05-03T00:27:17.545Z,9.10
2019-05-03T00:28:22.897Z,9.10
2019-05-03T00:29:28.251Z,9.10
2019-05-03T00:30:33.527Z,9.10
2019-05-03T00:31:38.846Z,9.10
2019-05-03T00:32:44.131Z,9.10
2019-05-03T00:33:52.407Z,9.00
2019-05-03T00:35:01.656Z,9.00
2019-05-03T00:36:21.902Z,9.00
2019-05-03T00:37:27.977Z,9.00
2019-05-03T00:38:33.393Z,9.00
2019-05-03T00:39:48.512Z,9.00
2019-05-03T00:40:53.919Z,9.00
2019-05-03T00:41:59.126Z,9.00
2019-05-03T00:43:04.633Z,9.00
2019-05-03T00:44:11.519Z,9.00
2019-05-03T00:45:16.862Z,9.00
2019-05-03T00:46:22.151Z,9.00
2019-05-03T00:47:27.631Z,9.00
2019-05-03T00:48:32.992Z,9.00
2019-05-03T00:49:38.307Z,9.00
2019-05-03T00:50:43.598Z,9.00
2019-05-03T00:51:48.988Z,9.00
2019-05-03T00:52:55.313Z,9.00
2019-05-03T00:54:02.077Z,9.00
2019-05-03T00:55:16.176Z,9.00
2019-05-03T00:56:14.360Z,8.90
2019-05-03T00:57:19.830Z,9.00
2019-05-03T00:58:25.155Z,9.00
2019-05-03T00:59:32.494Z,9.00
2019-05-03T01:00:37.338Z,9.00
2019-05-03T01:01:42.627Z,8.90
2019-05-03T01:02:47.917Z,8.90
2019-05-03T01:03:53.175Z,8.90
2019-05-03T01:04:58.608Z,8.90
2019-05-03T01:06:03.940Z,8.90
2019-05-03T01:07:09.343Z,8.90
2019-05-03T01:08:14.700Z,8.90
2019-05-03T01:09:23.665Z,8.90
2019-05-03T01:10:28.928Z,8.90
2019-05-03T01:11:34.352Z,8.90
2019-05-03T01:12:41.530Z,8.90
2019-05-03T01:13:46.471Z,8.90
2019-05-03T01:14:53.328Z,8.90
2019-05-03T01:16:11.798Z,8.90
2019-05-03T01:17:17.179Z,8.90
2019-05-03T01:18:22.476Z,8.90
2019-05-03T01:19:28.697Z,8.90
2019-05-03T01:20:33.991Z,8.90
2019-05-03T01:21:39.297Z,8.90
2019-05-03T01:22:44.603Z,8.90
2019-05-03T01:23:49.905Z,8.80
2019-05-03T01:24:55.213Z,8.90
2019-05-03T01:26:02.305Z,8.90
2019-05-03T01:27:07.263Z,8.90
2019-05-03T01:28:12.440Z,8.90
2019-05-03T01:29:17.750Z,8.90
2019-05-03T01:30:23.076Z,8.90
2019-05-03T01:31:28.459Z,8.80
2019-05-03T01:32:33.743Z,8.80
2019-05-03T01:33:39.092Z,8.80
2019-05-03T01:34:44.308Z,8.80
2019-05-03T01:35:49.649Z,8.80
2019-05-03T01:36:54.858Z,8.80
2019-05-03T01:38:02.047Z,8.80
2019-05-03T01:39:07.421Z,8.80
2019-05-03T01:40:13.998Z,8.80
2019-05-03T01:41:19.440Z,8.80
2019-05-03T01:42:24.745Z,8.90
2019-05-03T01:43:31.814Z,8.80
2019-05-03T01:44:37.200Z,8.80
2019-05-03T01:45:42.581Z,8.90
2019-05-03T01:46:48.806Z,8.80
2019-05-03T01:48:01.936Z,8.80
2019-05-03T01:49:19.177Z,8.80
2019-05-03T01:50:32.926Z,8.80
2019-05-03T01:52:06.283Z,8.80
2019-05-03T01:53:13.266Z,8.80
2019-05-03T01:54:18.567Z,8.80
2019-05-03T01:55:25.624Z,8.80
2019-05-03T01:56:31.652Z,8.80
2019-05-03T01:57:36.997Z,8.80
2019-05-03T01:58:42.198Z,8.80
2019-05-03T01:59:47.545Z,8.80
2019-05-03T02:01:02.684Z,8.80
2019-05-03T02:02:29.274Z,8.80
2019-05-03T02:03:44.256Z,8.80
2019-05-03T02:05:07.280Z,8.70
2019-05-03T02:06:12.730Z,8.80
2019-05-03T02:07:17.967Z,8.80
2019-05-03T02:08:23.321Z,8.80
2019-05-03T02:09:29.758Z,8.80
2019-05-03T02:10:35.091Z,8.70
2019-05-03T02:11:42.016Z,8.70
2019-05-03T02:12:47.235Z,8.70
2019-05-03T02:13:52.527Z,8.70
2019-05-03T02:14:57.819Z,8.80
2019-05-03T02:16:03.154Z,8.70
2019-05-03T02:17:08.485Z,8.70
2019-05-03T02:18:15.155Z,8.70
2019-05-03T02:19:21.996Z,8.70
2019-05-03T02:20:27.354Z,8.70
2019-05-03T02:21:32.598Z,8.70
2019-05-03T02:22:37.844Z,8.70
2019-05-03T02:23:43.134Z,8.70
2019-05-03T02:24:48.464Z,8.70
2019-05-03T02:25:56.816Z,8.70
2019-05-03T02:27:02.192Z,8.70
2019-05-03T02:28:07.678Z,8.60
2019-05-03T02:29:13.290Z,8.60
2019-05-03T02:30:18.535Z,8.60
2019-05-03T02:31:23.769Z,8.60
2019-05-03T02:32:29.039Z,8.60
2019-05-03T02:33:34.368Z,8.60
2019-05-03T02:34:39.828Z,8.60
2019-05-03T02:35:45.168Z,8.60
2019-05-03T02:36:53.477Z,8.60
2019-05-03T02:37:57.389Z,8.60
2019-05-03T02:39:03.021Z,8.60
2019-05-03T02:40:13.020Z,8.60
2019-05-03T02:41:17.599Z,8.60
2019-05-03T02:42:22.906Z,8.60
2019-05-03T02:43:45.005Z,8.60
2019-05-03T02:44:49.169Z,8.60
2019-05-03T02:46:05.902Z,8.60
2019-05-03T02:47:28.307Z,8.60
2019-05-03T02:48:39.158Z,8.60
2019-05-03T02:49:51.450Z,8.60
2019-05-03T02:50:56.867Z,8.60
2019-05-03T02:52:02.207Z,8.60
2019-05-03T02:53:08.626Z,8.60
2019-05-03T02:54:15.660Z,8.60
2019-05-03T02:55:21.045Z,8.50
2019-05-03T02:56:26.433Z,8.50
2019-05-03T02:57:31.729Z,8.50
2019-05-03T02:58:37.015Z,8.60
2019-05-03T02:59:42.206Z,8.60
2019-05-03T03:00:56.500Z,8.60
2019-05-03T03:02:06.112Z,8.60
2019-05-03T03:03:10.201Z,8.60
2019-05-03T03:04:15.906Z,8.60
2019-05-03T03:05:22.241Z,8.60
2019-05-03T03:06:30.795Z,8.60
2019-05-03T03:07:38.726Z,8.60
2019-05-03T03:08:46.369Z,8.60
2019-05-03T03:09:55.669Z,8.60
2019-05-03T03:11:02.768Z,8.60
2019-05-03T03:12:09.270Z,8.60
2019-05-03T03:13:16.329Z,8.60
2019-05-03T03:14:25.617Z,8.60
2019-05-03T03:15:36.252Z,8.60
2019-05-03T03:16:45.607Z,8.60
2019-05-03T03:17:55.999Z,8.60
2019-05-03T03:19:06.218Z,8.60
2019-05-03T03:20:10.615Z,8.60
2019-05-03T03:21:17.793Z,8.50
2019-05-03T03:22:25.973Z,8.50
2019-05-03T03:23:35.610Z,8.50
2019-05-03T03:24:45.904Z,8.60
2019-05-03T03:25:55.898Z,8.50
2019-05-03T03:27:05.345Z,8.50
2019-05-03T03:28:15.719Z,8.50
2019-05-03T03:29:25.335Z,8.60
2019-05-03T03:31:12.044Z,8.50
2019-05-03T03:32:29.087Z,8.60
2019-05-03T03:33:33.064Z,8.60
2019-05-03T03:34:48.278Z,8.60
2019-05-03T03:35:49.233Z,8.60
2019-05-03T03:37:03.739Z,8.50
2019-05-03T03:38:05.589Z,8.50
2019-05-03T03:39:10.036Z,8.40
2019-05-03T03:40:18.004Z,8.40
2019-05-03T03:41:25.098Z,8.50
2019-05-03T03:42:32.707Z,8.50
2019-05-03T03:43:38.469Z,8.40
2019-05-03T03:44:45.386Z,8.40
2019-05-03T03:45:51.986Z,8.40
2019-05-03T03:46:59.043Z,8.40
2019-05-03T03:48:05.253Z,8.30
2019-05-03T03:49:11.444Z,8.30
2019-05-03T03:50:16.693Z,8.30
2019-05-03T03:51:26.367Z,8.30
2019-05-03T03:52:35.862Z,8.30
2019-05-03T03:53:42.416Z,8.30
2019-05-03T03:54:49.974Z,8.30
2019-05-03T03:55:57.248Z,8.30
2019-05-03T03:57:07.917Z,8.30
2019-05-03T03:58:10.781Z,8.30
2019-05-03T03:59:16.560Z,8.20
2019-05-03T04:00:21.830Z,8.20
2019-05-03T04:01:28.219Z,8.20
2019-05-03T04:02:35.345Z,8.20
2019-05-03T04:03:42.146Z,8.20
2019-05-03T04:04:47.527Z,8.20
2019-05-03T04:05:55.380Z,8.30
2019-05-03T04:07:01.412Z,8.30
2019-05-03T04:08:06.944Z,8.30
2019-05-03T04:09:12.605Z,8.30
2019-05-03T04:10:17.812Z,8.20
2019-05-03T04:11:25.780Z,8.20
2019-05-03T04:12:30.304Z,8.30
2019-05-03T04:13:36.710Z,8.20
2019-05-03T04:14:51.330Z,8.20
2019-05-03T04:16:25.857Z,8.20
2019-05-03T04:17:56.830Z,8.20
2019-05-03T04:19:11.625Z,8.20
2019-05-03T04:20:19.415Z,8.20
2019-05-03T04:21:25.601Z,8.20
2019-05-03T04:22:31.503Z,8.20
2019-05-03T04:23:36.821Z,8.30
2019-05-03T04:24:42.269Z,8.30
2019-05-03T04:25:49.601Z,8.20
2019-05-03T04:27:15.495Z,8.30
2019-05-03T04:28:12.939Z,8.20
2019-05-03T04:29:19.135Z,8.20
2019-05-03T04:30:25.729Z,8.20
2019-05-03T04:31:31.293Z,8.30
2019-05-03T04:32:36.620Z,8.20
2019-05-03T04:33:41.955Z,8.20
2019-05-03T04:34:47.151Z,8.20
2019-05-03T04:35:55.569Z,8.20
2019-05-03T04:37:00.095Z,8.20
2019-05-03T04:38:05.704Z,8.20
2019-05-03T04:39:11.138Z,8.20
2019-05-03T04:40:16.433Z,8.20
2019-05-03T04:41:21.731Z,8.20
2019-05-03T04:42:26.959Z,8.20
2019-05-03T04:43:35.618Z,8.20
2019-05-03T04:44:41.104Z,8.30
2019-05-03T04:46:01.629Z,8.20
2019-05-03T04:47:07.317Z,8.30
2019-05-03T04:48:12.563Z,8.30
2019-05-03T04:49:17.885Z,8.30
2019-05-03T04:50:25.363Z,8.30
2019-05-03T04:51:30.049Z,8.20
2019-05-03T04:52:36.147Z,8.20
2019-05-03T04:53:45.516Z,8.20
2019-05-03T04:54:56.243Z,8.20
2019-05-03T04:56:01.880Z,8.20
2019-05-03T04:57:07.237Z,8.30
2019-05-03T04:58:12.469Z,8.20
2019-05-03T04:59:17.715Z,8.30
2019-05-03T05:00:25.593Z,8.30
2019-05-03T05:01:29.808Z,8.30
2019-05-03T05:02:35.546Z,8.40
2019-05-03T05:03:40.917Z,8.40
2019-05-03T05:04:46.513Z,8.40
2019-05-03T05:05:51.783Z,8.50
2019-05-03T05:06:57.016Z,8.50
2019-05-03T05:08:02.152Z,8.50
2019-05-03T05:09:07.977Z,8.60
2019-05-03T05:10:15.327Z,8.60
2019-05-03T05:11:20.303Z,8.70
2019-05-03T05:12:25.613Z,8.70
2019-05-03T05:13:31.055Z,8.70
2019-05-03T05:14:36.362Z,8.70
2019-05-03T05:15:41.617Z,8.70
2019-05-03T05:16:46.866Z,8.80
2019-05-03T05:18:05.678Z,8.80
2019-05-03T05:19:15.168Z,8.70
2019-05-03T05:20:35.074Z,8.70
2019-05-03T05:21:46.699Z,8.70
2019-05-03T05:22:51.905Z,8.70
2019-05-03T05:24:01.492Z,8.70
2019-05-03T05:25:10.124Z,8.70
2019-05-03T05:26:19.034Z,8.70
2019-05-03T05:27:29.925Z,8.60
2019-05-03T05:28:44.931Z,8.60
2019-05-03T05:29:51.345Z,8.60
2019-05-03T05:30:56.637Z,8.60
2019-05-03T05:32:02.002Z,8.60
2019-05-03T05:33:20.674Z,8.60
2019-05-03T05:34:25.824Z,8.60
2019-05-03T05:35:31.158Z,8.60
2019-05-03T05:36:36.475Z,8.70
2019-05-03T05:37:41.609Z,8.60
2019-05-03T05:38:46.775Z,8.70
2019-05-03T05:39:51.999Z,8.70
2019-05-03T05:40:57.338Z,8.80
2019-05-03T05:42:04.432Z,8.80
2019-05-03T05:43:09.388Z,8.80
2019-05-03T05:44:14.570Z,8.90
2019-05-03T05:45:19.767Z,8.80
2019-05-03T05:46:27.345Z,8.70
2019-05-03T05:47:38.048Z,8.80
2019-05-03T05:48:47.271Z,8.90
2019-05-03T05:49:55.823Z,8.90
2019-05-03T05:51:01.114Z,8.90
2019-05-03T05:52:06.315Z,9.00
2019-05-03T05:53:11.634Z,9.10
2019-05-03T05:54:17.122Z,9.10
2019-05-03T05:55:40.875Z,9.10
2019-05-03T05:56:56.904Z,9.10
2019-05-03T05:58:25.701Z,9.30
2019-05-03T05:59:50.062Z,9.40
2019-05-03T06:01:01.805Z,9.50
2019-05-03T06:02:08.289Z,9.60
2019-05-03T06:03:14.923Z,9.70
2019-05-03T06:04:21.810Z,9.90
2019-05-03T06:05:27.125Z,10.00
2019-05-03T06:06:55.368Z,10.10
2019-05-03T06:08:16.927Z,10.00
2019-05-03T06:09:38.183Z,10.00
2019-05-03T06:11:01.907Z,9.80
2019-05-03T06:12:11.334Z,9.70
2019-05-03T06:13:26.804Z,9.70
2019-05-03T06:14:40.461Z,9.70
2019-05-03T06:16:07.459Z,9.70
2019-05-03T06:17:18.206Z,9.60
2019-05-03T06:18:35.406Z,9.70
2019-05-03T06:19:44.883Z,9.80
2019-05-03T06:21:05.514Z,10.10
2019-05-03T06:22:22.784Z,10.10
2019-05-03T06:23:35.491Z,10.20
2019-05-03T06:24:45.278Z,10.30
2019-05-03T06:25:50.613Z,10.20
2019-05-03T06:27:00.913Z,10.20
2019-05-03T06:28:19.938Z,10.20
2019-05-03T06:29:16.781Z,10.10
2019-05-03T06:30:54.493Z,10.10
2019-05-03T06:32:17.646Z,10.00
2019-05-03T06:33:24.470Z,10.10
2019-05-03T06:34:29.921Z,10.30
2019-05-03T06:35:35.086Z,10.50
2019-05-03T06:36:41.253Z,10.60
2019-05-03T06:37:46.633Z,10.60
2019-05-03T06:38:54.650Z,10.70
2019-05-03T06:39:59.821Z,10.60
2019-05-03T06:41:05.043Z,10.60
2019-05-03T06:42:17.539Z,10.60
2019-05-03T06:43:17.256Z,10.60
2019-05-03T06:44:24.732Z,10.80
2019-05-03T06:45:29.351Z,10.70
2019-05-03T06:46:45.501Z,10.80
2019-05-03T06:47:52.229Z,10.90
2019-05-03T06:49:01.115Z,11.10
2019-05-03T06:50:05.530Z,11.20
2019-05-03T06:51:15.740Z,11.40
2019-05-03T06:52:19.623Z,11.40
2019-05-03T06:53:25.398Z,11.60
2019-05-03T06:54:30.929Z,11.70
2019-05-03T06:55:40.039Z,11.90
2019-05-03T06:56:45.012Z,11.90
2019-05-03T06:57:49.905Z,11.90
2019-05-03T06:58:55.218Z,11.70
2019-05-03T07:00:11.496Z,11.80
2019-05-03T07:01:25.874Z,11.80
2019-05-03T07:02:44.701Z,11.70
2019-05-03T07:04:05.010Z,11.90
2019-05-03T07:05:19.609Z,12.00
2019-05-03T07:06:46.640Z,12.00
2019-05-03T07:07:58.159Z,12.10
2019-05-03T07:09:17.426Z,12.30
2019-05-03T07:10:41.196Z,12.30
2019-05-03T07:11:46.461Z,12.10
2019-05-03T07:13:05.121Z,12.10
2019-05-03T07:14:10.807Z,12.20
2019-05-03T07:15:16.096Z,12.20
2019-05-03T07:16:21.375Z,12.00
2019-05-03T07:17:26.609Z,12.00
2019-05-03T07:18:31.903Z,11.90
2019-05-03T07:19:37.167Z,11.70
2019-05-03T07:20:46.022Z,11.50
2019-05-03T07:21:51.404Z,11.40
2019-05-03T07:22:56.771Z,11.40
2019-05-03T07:24:02.039Z,11.40
2019-05-03T07:25:09.497Z,11.40
2019-05-03T07:26:15.168Z,11.40
2019-05-03T07:27:21.601Z,11.30
2019-05-03T07:28:26.659Z,11.30
2019-05-03T07:29:31.776Z,11.30
2019-05-03T07:30:37.148Z,11.20
2019-05-03T07:31:44.524Z,11.30
2019-05-03T07:32:55.266Z,11.20
2019-05-03T07:34:00.494Z,11.20
2019-05-03T07:35:05.606Z,11.40
2019-05-03T07:36:10.788Z,11.40
2019-05-03T07:37:15.945Z,11.40
2019-05-03T07:38:22.271Z,11.30
2019-05-03T07:39:27.525Z,11.30
2019-05-03T07:40:32.716Z,11.10
2019-05-03T07:41:38.050Z,11.00
2019-05-03T07:42:44.887Z,11.00
2019-05-03T07:43:50.178Z,10.90
2019-05-03T07:44:55.974Z,10.80
2019-05-03T07:46:01.867Z,10.70
2019-05-03T07:47:07.140Z,10.70
2019-05-03T07:48:12.391Z,10.60
2019-05-03T07:49:17.769Z,10.60
2019-05-03T07:50:22.972Z,10.70
2019-05-03T07:51:28.125Z,10.50
2019-05-03T07:52:34.833Z,10.50
2019-05-03T07:53:40.287Z,10.50
2019-05-03T07:54:45.553Z,10.50
2019-05-03T07:56:15.463Z,10.50
2019-05-03T07:57:29.460Z,10.40
2019-05-03T07:58:35.226Z,10.30
2019-05-03T07:59:40.484Z,10.30
2019-05-03T08:00:45.808Z,10.30
2019-05-03T08:01:54.609Z,10.40
2019-05-03T08:02:59.861Z,10.30
2019-05-03T08:04:06.242Z,10.20
2019-05-03T08:05:11.644Z,10.10
2019-05-03T08:06:16.851Z,10.30
2019-05-03T08:07:23.062Z,10.40
2019-05-03T08:08:28.975Z,10.60
2019-05-03T08:09:35.005Z,11.00
2019-05-03T08:10:40.340Z,11.20
2019-05-03T08:11:45.552Z,11.50
2019-05-03T08:12:50.725Z,11.60
2019-05-03T08:13:56.026Z,11.50
2019-05-03T08:15:01.336Z,11.60
2019-05-03T08:16:07.871Z,11.70
2019-05-03T08:17:15.158Z,11.60
2019-05-03T08:18:20.323Z,11.50
2019-05-03T08:19:26.961Z,11.50
2019-05-03T08:20:32.465Z,11.40
2019-05-03T08:21:38.999Z,11.10
2019-05-03T08:22:44.825Z,11.10
2019-05-03T08:23:50.035Z,11.00
2019-05-03T08:24:55.659Z,10.80
2019-05-03T08:26:02.078Z,10.80
2019-05-03T08:27:07.392Z,10.90
2019-05-03T08:28:14.596Z,11.00
2019-05-03T08:29:19.839Z,11.00
2019-05-03T08:30:31.385Z,11.00
2019-05-03T08:31:55.631Z,10.90
2019-05-03T08:33:24.874Z,10.80
2019-05-03T08:34:40.322Z,11.00
2019-05-03T08:35:47.113Z,11.20
2019-05-03T08:36:57.255Z,11.50
2019-05-03T08:38:04.840Z,11.60
2019-05-03T08:39:09.824Z,11.70
2019-05-03T08:40:16.651Z,11.80
2019-05-03T08:41:24.739Z,11.90
2019-05-03T08:42:30.009Z,11.80
2019-05-03T08:43:35.781Z,11.80
2019-05-03T08:44:41.299Z,11.50
2019-05-03T08:45:46.690Z,11.40
2019-05-03T08:46:51.960Z,11.30
2019-05-03T08:48:00.270Z,11.30
2019-05-03T08:49:05.450Z,11.10
2019-05-03T08:50:14.989Z,11.10
2019-05-03T08:51:18.906Z,11.00
2019-05-03T08:52:24.769Z,11.00
2019-05-03T08:53:35.550Z,10.90
2019-05-03T08:54:39.858Z,10.90
2019-05-03T08:55:45.096Z,11.00
2019-05-03T08:56:50.219Z,11.20
2019-05-03T08:57:55.859Z,11.30
2019-05-03T08:59:01.071Z,11.50
2019-05-03T09:00:08.841Z,11.80
2019-05-03T09:01:14.792Z,11.80
2019-05-03T09:02:20.403Z,11.80
2019-05-03T09:03:25.673Z,12.10
2019-05-03T09:04:37.546Z,12.20
2019-05-03T09:05:37.856Z,12.40
2019-05-03T09:06:44.633Z,12.50
2019-05-03T09:07:50.835Z,12.40
2019-05-03T09:08:57.211Z,12.40
2019-05-03T09:10:12.388Z,12.30
2019-05-03T09:11:16.569Z,12.10
2019-05-03T09:12:21.830Z,12.10
2019-05-03T09:13:28.841Z,12.10
2019-05-03T09:14:41.589Z,11.90
2019-05-03T09:15:41.673Z,11.90
2019-05-03T09:16:47.070Z,11.80
2019-05-03T09:17:52.323Z,11.80
2019-05-03T09:18:57.636Z,11.80
2019-05-03T09:20:02.869Z,11.90
2019-05-03T09:21:08.121Z,12.20
2019-05-03T09:22:14.791Z,12.50
2019-05-03T09:23:23.060Z,12.80
2019-05-03T09:24:27.040Z,13.10
2019-05-03T09:25:32.141Z,13.10
2019-05-03T09:26:37.287Z,13.40
2019-05-03T09:27:44.601Z,13.50
2019-05-03T09:28:49.384Z,13.70
2019-05-03T09:29:55.822Z,13.70
2019-05-03T09:31:01.203Z,13.60
2019-05-03T09:32:07.544Z,13.50
2019-05-03T09:33:15.154Z,13.60
2019-05-03T09:34:20.066Z,13.50
2019-05-03T09:35:30.514Z,13.50
2019-05-03T09:36:34.374Z,13.30
2019-05-03T09:37:39.360Z,13.10
2019-05-03T09:38:45.752Z,13.00
2019-05-03T09:39:51.310Z,12.80
2019-05-03T09:40:56.622Z,12.80
2019-05-03T09:42:01.984Z,12.80
2019-05-03T09:43:07.201Z,12.60
2019-05-03T09:44:12.382Z,12.50
2019-05-03T09:45:17.603Z,12.40
2019-05-03T09:46:24.263Z,12.30
2019-05-03T09:47:29.790Z,12.30
2019-05-03T09:48:35.021Z,12.10
2019-05-03T09:49:40.303Z,12.20
2019-05-03T09:50:45.569Z,12.20
2019-05-03T09:51:50.794Z,12.00
2019-05-03T09:52:58.398Z,12.10
2019-05-03T09:54:10.438Z,12.30
2019-05-03T09:55:40.443Z,12.60
2019-05-03T09:56:59.049Z,12.70
2019-05-03T09:58:05.500Z,13.00
2019-05-03T09:59:12.010Z,13.10
2019-05-03T10:00:18.301Z,13.20
2019-05-03T10:01:25.454Z,13.30
2019-05-03T10:02:35.277Z,13.50
2019-05-03T10:04:05.431Z,13.70
2019-05-03T10:05:15.590Z,13.70
2019-05-03T10:06:25.495Z,13.70
2019-05-03T10:07:30.834Z,13.60
2019-05-03T10:08:36.153Z,13.40
2019-05-03T10:09:41.532Z,13.10
2019-05-03T10:11:05.499Z,13.00
2019-05-03T10:12:16.177Z,12.90
2019-05-03T10:13:23.829Z,12.80
2019-05-03T10:14:28.651Z,12.70
2019-05-03T10:15:41.574Z,12.60
2019-05-03T10:17:05.784Z,12.50
2019-05-03T10:18:14.613Z,12.60
2019-05-03T10:19:19.814Z,12.70
2019-05-03T10:20:26.173Z,13.00
2019-05-03T10:21:35.428Z,13.30
2019-05-03T10:22:39.868Z,13.50
2019-05-03T10:23:45.495Z,13.70
2019-05-03T10:24:50.625Z,13.90
2019-05-03T10:25:55.840Z,14.30
2019-05-03T10:27:01.081Z,14.50
2019-05-03T10:28:06.320Z,14.50
2019-05-03T10:29:11.931Z,14.60
2019-05-03T10:30:21.977Z,14.70
2019-05-03T10:31:32.969Z,14.70
2019-05-03T10:32:41.886Z,14.80
2019-05-03T10:33:54.764Z,15.00
2019-05-03T10:35:05.494Z,15.00
2019-05-03T10:36:10.919Z,14.80
2019-05-03T10:37:30.380Z,14.70
2019-05-03T10:38:35.730Z,14.60
2019-05-03T10:39:40.964Z,14.30
2019-05-03T10:40:46.293Z,14.10
2019-05-03T10:41:51.654Z,13.90
2019-05-03T10:42:56.950Z,13.90
2019-05-03T10:44:02.208Z,13.80
2019-05-03T10:45:07.773Z,13.50
2019-05-03T10:46:13.107Z,13.40
2019-05-03T10:47:18.368Z,13.30
2019-05-03T10:48:24.886Z,13.00
2019-05-03T10:49:30.435Z,12.80
2019-05-03T10:50:35.694Z,12.80
2019-05-03T10:51:45.396Z,12.70
2019-05-03T10:53:16.111Z,12.60
2019-05-03T10:54:21.585Z,12.50
2019-05-03T10:55:27.051Z,12.50
2019-05-03T10:56:50.208Z,12.30
2019-05-03T10:58:12.936Z,12.30
2019-05-03T10:59:19.505Z,12.30
2019-05-03T11:00:44.280Z,12.50
2019-05-03T11:01:40.313Z,12.60
2019-05-03T11:02:50.240Z,12.80
2019-05-03T11:03:55.571Z,13.00
2019-05-03T11:05:01.199Z,13.10
2019-05-03T11:06:06.475Z,13.20
2019-05-03T11:07:11.730Z,13.30
2019-05-03T11:08:17.194Z,13.30
2019-05-03T11:09:22.443Z,13.30
2019-05-03T11:10:27.782Z,13.10
2019-05-03T11:11:35.347Z,13.40
2019-05-03T11:12:40.863Z,13.70
2019-05-03T11:13:46.040Z,14.20
2019-05-03T11:14:54.102Z,14.40
2019-05-03T11:15:59.736Z,14.50
2019-05-03T11:17:06.305Z,14.50
2019-05-03T11:18:11.349Z,14.50
2019-05-03T11:19:16.539Z,14.60
2019-05-03T11:20:34.652Z,14.70
2019-05-03T11:21:41.335Z,14.70
2019-05-03T11:22:46.558Z,14.70
2019-05-03T11:23:51.722Z,14.30
2019-05-03T11:24:56.885Z,14.20
2019-05-03T11:26:02.199Z,13.90
2019-05-03T11:27:13.502Z,13.70
2019-05-03T11:28:24.821Z,13.60
2019-05-03T11:29:29.833Z,13.40
2019-05-03T11:30:35.635Z,13.30
2019-05-03T11:31:58.366Z,13.40
2019-05-03T11:33:08.715Z,13.30
2019-05-03T11:34:15.124Z,13.40
2019-05-03T11:35:29.070Z,13.50
2019-05-03T11:36:42.885Z,13.60
2019-05-03T11:37:51.557Z,13.50
2019-05-03T11:38:56.821Z,13.50
2019-05-03T11:40:04.981Z,13.50
2019-05-03T11:41:09.925Z,13.50
2019-05-03T11:42:16.229Z,13.40
2019-05-03T11:43:24.796Z,13.30
2019-05-03T11:44:38.021Z,13.20
2019-05-03T11:45:44.851Z,13.30
2019-05-03T11:46:50.287Z,13.30
2019-05-03T11:47:55.553Z,13.20
2019-05-03T11:49:00.821Z,13.10
2019-05-03T11:50:06.249Z,13.10
2019-05-03T11:51:12.495Z,13.00
2019-05-03T11:52:17.729Z,12.90
2019-05-03T11:53:25.023Z,12.90
2019-05-03T11:54:29.851Z,12.90
2019-05-03T11:55:35.378Z,12.80
2019-05-03T11:56:41.218Z,12.90
2019-05-03T11:57:47.085Z,12.80
2019-05-03T11:58:54.884Z,12.70
2019-05-03T11:59:59.815Z,12.60
2019-05-03T12:01:18.830Z,12.70
2019-05-03T12:02:44.608Z,12.80
2019-05-03T12:03:52.681Z,13.00
2019-05-03T12:04:59.541Z,13.40
2019-05-03T12:06:05.268Z,13.70
2019-05-03T12:07:18.238Z,14.00
2019-05-03T12:08:27.167Z,14.20
2019-05-03T12:09:32.684Z,14.40
2019-05-03T12:10:52.526Z,14.70
2019-05-03T12:11:45.122Z,14.80
2019-05-03T12:12:57.205Z,14.80
2019-05-03T12:14:12.189Z,14.70
2019-05-03T12:15:17.681Z,14.80
2019-05-03T12:17:10.339Z,14.70
2019-05-03T12:17:50.966Z,14.70
2019-05-03T12:18:53.082Z,14.50
2019-05-03T12:19:56.005Z,14.40
2019-05-03T12:21:01.287Z,14.40
2019-05-03T12:22:07.636Z,14.30
2019-05-03T12:23:16.051Z,14.20
2019-05-03T12:24:21.483Z,14.20
2019-05-03T12:25:28.046Z,14.30
2019-05-03T12:26:41.598Z,14.30
2019-05-03T12:27:40.829Z,14.40
2019-05-03T12:28:48.823Z,14.70
2019-05-03T12:29:54.172Z,14.80
2019-05-03T12:30:59.709Z,14.90
2019-05-03T12:32:05.341Z,15.00
2019-05-03T12:33:10.924Z,15.10
2019-05-03T12:34:16.281Z,15.20
2019-05-03T12:35:21.509Z,15.00
2019-05-03T12:36:26.838Z,15.00
2019-05-03T12:37:35.167Z,15.10
2019-05-03T12:38:40.587Z,15.00
2019-05-03T12:39:46.344Z,14.90
2019-05-03T12:40:51.868Z,14.70
2019-05-03T12:41:57.209Z,14.60
2019-05-03T12:43:02.572Z,14.40
2019-05-03T12:44:08.653Z,14.30
2019-05-03T12:45:15.219Z,14.20
2019-05-03T12:46:20.553Z,14.10
2019-05-03T12:47:25.703Z,14.10
2019-05-03T12:48:31.893Z,14.10
2019-05-03T12:49:38.204Z,14.20
2019-05-03T12:50:45.864Z,14.00
2019-05-03T12:51:50.261Z,14.00
2019-05-03T12:52:55.629Z,14.00
2019-05-03T12:54:00.930Z,14.10
2019-05-03T12:55:06.523Z,14.10
2019-05-03T12:56:13.821Z,14.20
2019-05-03T12:57:18.575Z,14.20
2019-05-03T12:58:45.773Z,14.30
2019-05-03T13:00:07.363Z,14.30
2019-05-03T13:01:21.215Z,14.30
2019-05-03T13:02:34.791Z,14.20
2019-05-03T13:03:52.303Z,14.20
2019-05-03T13:04:57.831Z,14.20
2019-05-03T13:06:06.779Z,14.20
2019-05-03T13:07:24.276Z,14.10
2019-05-03T13:08:38.988Z,13.90
2019-05-03T13:09:45.277Z,13.80
2019-05-03T13:10:50.817Z,13.90
2019-05-03T13:11:59.069Z,14.00
2019-05-03T13:13:03.756Z,14.00
2019-05-03T13:14:09.027Z,14.00
2019-05-03T13:15:14.572Z,14.00
2019-05-03T13:16:20.424Z,14.00
2019-05-03T13:17:38.446Z,13.90
2019-05-03T13:18:45.584Z,13.90
2019-05-03T13:19:54.599Z,14.00
2019-05-03T13:20:59.299Z,14.20
2019-05-03T13:22:04.661Z,14.20
2019-05-03T13:23:12.797Z,14.20
2019-05-03T13:24:23.253Z,14.20
2019-05-03T13:25:25.768Z,14.00
2019-05-03T13:26:30.593Z,13.90
2019-05-03T13:27:35.974Z,13.80
2019-05-03T13:28:42.460Z,13.70
2019-05-03T13:29:47.705Z,13.60
2019-05-03T13:30:55.110Z,13.50
2019-05-03T13:32:02.222Z,13.40
2019-05-03T13:33:08.876Z,13.30
2019-05-03T13:34:15.936Z,13.30
2019-05-03T13:35:21.327Z,13.20
2019-05-03T13:36:26.538Z,13.10
2019-05-03T13:37:31.834Z,13.10
2019-05-03T13:38:37.231Z,13.10
2019-05-03T13:39:45.119Z,13.10
2019-05-03T13:40:50.527Z,13.00
2019-05-03T13:41:55.805Z,12.90
2019-05-03T13:43:03.757Z,13.00
2019-05-03T13:44:07.976Z,12.90
2019-05-03T13:45:13.239Z,12.80
2019-05-03T13:46:18.579Z,12.80
2019-05-03T13:47:23.865Z,12.80
2019-05-03T13:48:41.569Z,12.80
2019-05-03T13:49:36.114Z,12.80
2019-05-03T13:50:41.458Z,12.80
2019-05-03T13:51:46.700Z,12.70
2019-05-03T13:52:51.954Z,12.80
2019-05-03T13:53:57.230Z,12.80
2019-05-03T13:55:05.277Z,12.90
2019-05-03T13:56:12.002Z,12.90
2019-05-03T13:57:17.414Z,12.80
2019-05-03T13:58:22.856Z,12.80
2019-05-03T13:59:28.085Z,12.80
2019-05-03T14:00:34.585Z,12.80
2019-05-03T14:01:40.441Z,12.90
2019-05-03T14:02:45.909Z,12.90
2019-05-03T14:03:51.076Z,12.80
2019-05-03T14:04:56.263Z,12.70
2019-05-03T14:06:01.522Z,12.60
2019-05-03T14:07:06.842Z,12.50
2019-05-03T14:08:12.082Z,12.50
2019-05-03T14:09:17.361Z,12.50
2019-05-03T14:10:24.980Z,12.60
2019-05-03T14:11:29.556Z,12.70
2019-05-03T14:12:35.177Z,12.70
2019-05-03T14:13:40.639Z,12.90
2019-05-03T14:14:56.282Z,12.90
2019-05-03T14:16:02.150Z,12.90
2019-05-03T14:17:07.811Z,13.10
2019-05-03T14:18:15.318Z,13.20
2019-05-03T14:19:27.099Z,13.30
2019-05-03T14:21:06.375Z,13.40
2019-05-03T14:22:12.862Z,13.50
2019-05-03T14:23:18.013Z,13.40
2019-05-03T14:24:24.569Z,13.40
2019-05-03T14:25:29.876Z,13.50
2019-05-03T14:26:35.250Z,13.50
2019-05-03T14:27:40.646Z,13.50
2019-05-03T14:28:45.835Z,13.30
2019-05-03T14:29:51.166Z,13.30
2019-05-03T14:30:56.388Z,13.40
2019-05-03T14:32:01.662Z,13.40
2019-05-03T14:33:06.946Z,13.30
2019-05-03T14:34:12.056Z,13.20
2019-05-03T14:35:17.250Z,13.20
2019-05-03T14:36:22.656Z,13.20
2019-05-03T14:37:27.889Z,13.20
2019-05-03T14:38:33.195Z,13.20
2019-05-03T14:39:38.498Z,13.10
2019-05-03T14:40:44.921Z,13.10
2019-05-03T14:41:50.573Z,13.10
2019-05-03T14:42:55.686Z,13.00
2019-05-03T14:44:00.902Z,12.90
2019-05-03T14:45:06.821Z,12.90
2019-05-03T14:46:12.231Z,12.90
2019-05-03T14:47:17.447Z,12.80
2019-05-03T14:48:24.644Z,12.80